Time;durP1;ratioP1;P1;durP2;ratioP2;P2;SDS_P1;SDS_P2;PMS_P1;PMS_P2;Temp;Humidity;BMP_temperature;BMP_pressure;BME280_temperature;BME280_humidity;BME280_pressure;Samples;Min_cycle;Max_cycle;Signal;HPM_P1;HPM_P2
2022/03/04 00:02:06;;;;;;;25.67;14.37;;;;;;;-0.39;95.95;95258.31;5014816;28;20217;-49
2022/03/04 00:04:34;;;;;;;26.17;14.83;;;;;;;-0.41;96.39;95255.94;5015392;28;20216;-49
2022/03/04 00:07:02;;;;;;;27.73;15.10;;;;;;;-0.39;96.97;95259.06;5014954;28;20177;-50
2022/03/04 00:09:28;;;;;;;27.07;14.77;;;;;;;-0.41;96.98;95255.16;5015214;28;20185;-51
2022/03/04 00:11:53;;;;;;;26.40;14.53;;;;;;;-0.42;97.53;95259.75;5014316;28;20196;-59
2022/03/04 00:14:19;;;;;;;25.23;14.90;;;;;;;-0.39;98.01;95263.66;5014885;28;20243;-54
2022/03/04 00:16:45;;;;;;;29.67;15.40;;;;;;;-0.41;98.15;95263.22;5015157;28;20197;-60
2022/03/04 00:19:10;;;;;;;28.87;15.13;;;;;;;-0.42;98.88;95258.97;5014959;28;20279;-59
2022/03/04 00:21:37;;;;;;;26.40;15.67;;;;;;;-0.46;99.30;95263.44;5014769;28;20196;-59
2022/03/04 00:24:07;;;;;;;26.13;14.23;;;;;;;-0.48;99.81;95271.81;5014883;28;20180;-59
2022/03/04 00:26:33;;;;;;;29.43;15.63;;;;;;;-0.52;100.00;95267.47;5014889;28;20194;-59
2022/03/04 00:28:58;;;;;;;26.37;14.90;;;;;;;-0.54;100.00;95264.34;5014576;28;20665;-60
2022/03/04 00:31:24;;;;;;;29.93;15.27;;;;;;;-0.57;100.00;95273.06;5014566;28;20243;-49
2022/03/04 00:33:50;;;;;;;27.57;15.27;;;;;;;-0.62;100.00;95276.75;5014443;28;20262;-47
2022/03/04 00:36:15;;;;;;;23.33;14.10;;;;;;;-0.68;100.00;95269.25;5014520;28;20182;-52
2022/03/04 00:38:41;;;;;;;23.83;15.07;;;;;;;-0.73;100.00;95274.84;5014662;28;20193;-52
2022/03/04 00:41:06;;;;;;;27.47;14.97;;;;;;;-0.76;100.00;95270.91;5014526;28;20193;-53
2022/03/04 00:43:31;;;;;;;26.57;14.97;;;;;;;-0.78;100.00;95267.81;5014530;28;20204;-52
2022/03/04 00:45:57;;;;;;;26.57;15.10;;;;;;;-0.83;100.00;95275.28;5014386;28;20189;-49
2022/03/04 00:48:22;;;;;;;26.73;15.27;;;;;;;-0.80;100.00;95278.06;5014834;28;20191;-59
2022/03/04 00:50:47;;;;;;;28.37;14.90;;;;;;;-0.83;100.00;95272.59;5014477;28;20198;-59
2022/03/04 00:53:13;;;;;;;28.27;15.17;;;;;;;-0.83;100.00;95277.97;5013980;28;20216;-53
2022/03/04 00:55:38;;;;;;;27.57;15.63;;;;;;;-0.85;100.00;95269.47;5014847;28;20196;-55
2022/03/04 00:58:10;;;;;;;28.00;15.40;;;;;;;-0.89;100.00;95276.59;5014003;28;20208;-51
2022/03/04 01:00:36;;;;;;;25.70;15.03;;;;;;;-0.97;100.00;95272.13;5014051;28;20188;-53
2022/03/04 01:03:03;;;;;;;27.10;15.03;;;;;;;-1.01;100.00;95269.34;5013884;28;20205;-51
2022/03/04 01:05:28;;;;;;;29.40;14.27;;;;;;;-0.99;100.00;95260.97;5013993;28;20262;-54
2022/03/04 01:07:54;;;;;;;24.07;14.80;;;;;;;-1.02;100.00;95267.00;5013940;28;20283;-47
2022/03/04 01:10:19;;;;;;;29.50;16.03;;;;;;;-0.96;100.00;95265.66;5013733;28;20212;-67
2022/03/04 01:12:45;;;;;;;25.67;15.07;;;;;;;-1.02;100.00;95262.41;5014365;28;20213;-67
2022/03/04 01:15:11;;;;;;;30.73;14.83;;;;;;;-1.01;100.00;95264.00;5014028;28;20187;-66
2022/03/04 01:17:36;;;;;;;27.40;14.37;;;;;;;-1.05;100.00;95262.31;5013798;28;20198;-67
2022/03/04 01:20:03;;;;;;;24.37;14.73;;;;;;;-1.04;100.00;95258.50;5013919;28;20242;-67
2022/03/04 01:22:28;;;;;;;25.97;13.97;;;;;;;-1.12;100.00;95257.50;5013792;28;20185;-66
2022/03/04 01:24:54;;;;;;;29.90;15.33;;;;;;;-1.12;100.00;95246.00;5012358;28;20271;-53
2022/03/04 01:27:19;;;;;;;27.83;15.23;;;;;;;-1.08;100.00;95252.25;5013859;28;20192;-53
2022/03/04 01:29:45;;;;;;;24.27;14.10;;;;;;;-1.09;100.00;95248.03;5013602;28;20181;-57
2022/03/04 01:32:10;;;;;;;28.17;15.50;;;;;;;-1.08;100.00;95252.25;5013622;28;20195;-55
2022/03/04 01:34:36;;;;;;;29.77;15.40;;;;;;;-1.06;100.00;95250.03;5013444;28;20188;-55
2022/03/04 01:37:01;;;;;;;27.37;15.50;;;;;;;-1.09;100.00;95251.47;5013952;28;20533;-55
2022/03/04 01:39:27;;;;;;;27.23;15.53;;;;;;;-1.09;100.00;95253.38;5014054;28;20199;-53
2022/03/04 01:41:53;;;;;;;29.70;15.90;;;;;;;-1.12;100.00;95249.47;5013711;28;20553;-57
2022/03/04 01:44:19;;;;;;;26.30;14.60;;;;;;;-1.14;100.00;95240.97;5013331;28;20211;-54
2022/03/04 01:46:45;;;;;;;27.00;15.17;;;;;;;-1.16;100.00;95245.09;5013958;28;20287;-62
2022/03/04 01:49:10;;;;;;;28.37;15.87;;;;;;;-1.16;100.00;95245.09;5014130;28;20190;-63
2022/03/04 01:51:36;;;;;;;30.67;15.63;;;;;;;-1.23;100.00;95239.50;5013189;28;20207;-64
2022/03/04 01:54:02;;;;;;;27.13;15.27;;;;;;;-1.25;100.00;95233.69;5013175;28;20200;-63
2022/03/04 01:56:27;;;;;;;24.60;14.27;;;;;;;-1.24;100.00;95227.25;5013259;28;20195;-63
2022/03/04 01:58:53;;;;;;;29.00;15.60;;;;;;;-1.32;100.00;95244.16;5013454;28;20199;-63
2022/03/04 02:01:18;;;;;;;29.77;15.43;;;;;;;-1.35;100.00;95232.22;5013266;28;20200;-63
2022/03/04 02:03:44;;;;;;;28.17;14.77;;;;;;;-1.34;100.00;95238.38;5013414;28;20532;-66
2022/03/04 02:06:09;;;;;;;27.30;15.73;;;;;;;-1.35;100.00;95234.13;5012814;28;20223;-53
2022/03/04 02:08:35;;;;;;;25.53;14.20;;;;;;;-1.39;100.00;95235.88;5013255;28;20247;-54
2022/03/04 02:11:00;;;;;;;29.60;14.83;;;;;;;-1.41;100.00;95227.44;5013055;28;20284;-54
2022/03/04 02:13:25;;;;;;;26.03;14.70;;;;;;;-1.47;100.00;95228.75;5012991;28;20250;-51
2022/03/04 02:15:50;;;;;;;28.67;14.83;;;;;;;-1.49;100.00;95231.75;5013074;28;20183;-56
2022/03/04 02:18:17;;;;;;;29.87;15.43;;;;;;;-1.50;100.00;95229.41;5012833;28;20270;-53
2022/03/04 02:20:53;;;;;;;26.67;14.83;;;;;;;-1.51;100.00;95233.19;5013009;28;20286;-58
2022/03/04 02:23:19;;;;;;;25.77;14.17;;;;;;;-1.55;100.00;95232.28;5013287;28;20628;-62
2022/03/04 02:25:50;;;;;;;27.63;15.33;;;;;;;-1.62;100.00;95237.41;5012718;28;20218;-63
2022/03/04 02:28:17;;;;;;;25.67;15.10;;;;;;;-1.64;100.00;95234.28;5013411;28;20191;-64
2022/03/04 02:30:43;;;;;;;28.27;15.40;;;;;;;-1.70;100.00;95230.25;5012757;28;20214;-64
2022/03/04 02:33:09;;;;;;;29.47;15.93;;;;;;;-1.74;100.00;95234.69;5012675;28;20222;-63
2022/03/04 02:35:35;;;;;;;28.27;16.10;;;;;;;-1.80;100.00;95228.75;5014849;28;20179;-64
2022/03/04 02:38:01;;;;;;;27.97;15.17;;;;;;;-1.85;100.00;95222.84;5016517;28;20198;-63
2022/03/04 02:40:27;;;;;;;30.10;15.80;;;;;;;-1.93;100.00;95221.03;5016404;28;20261;-62
2022/03/04 02:42:53;;;;;;;28.97;15.63;;;;;;;-1.98;100.00;95219.31;5016345;28;20242;-55
2022/03/04 02:45:18;;;;;;;26.30;14.87;;;;;;;-2.02;100.00;95212.28;5016037;28;20212;-55
2022/03/04 02:47:44;;;;;;;28.50;15.33;;;;;;;-2.06;100.00;95206.03;5016136;28;20195;-55
2022/03/04 02:50:09;;;;;;;31.67;16.07;;;;;;;-2.11;100.00;95203.56;5016093;28;20218;-55
2022/03/04 02:53:09;;;;;;;29.97;15.20;;;;;;;-2.18;100.00;95205.97;5016007;28;20209;-58
2022/03/04 02:55:34;;;;;;;29.57;15.07;;;;;;;-2.26;100.00;95201.47;5015973;28;20191;-55
2022/03/04 02:58:00;;;;;;;27.07;14.93;;;;;;;-2.32;100.00;95203.56;5015971;28;20187;-68
2022/03/04 03:00:25;;;;;;;22.87;14.03;;;;;;;-2.42;100.00;95209.31;5015926;28;20187;-48
2022/03/04 03:02:51;;;;;;;25.13;14.60;;;;;;;-2.50;100.00;95201.34;5015625;28;20269;-49
2022/03/04 03:05:16;;;;;;;29.53;14.87;;;;;;;-2.57;100.00;95204.53;5016296;28;20211;-48
2022/03/04 03:07:42;;;;;;;27.60;14.80;;;;;;;-2.62;100.00;95207.38;5015764;28;20198;-48
2022/03/04 03:10:09;;;;;;;28.50;14.90;;;;;;;-2.63;100.00;95208.50;5016202;28;20183;-53
2022/03/04 03:12:35;;;;;;;27.10;14.37;;;;;;;-2.63;100.00;95207.72;5015482;28;20225;-48
2022/03/04 03:15:01;;;;;;;28.50;15.73;;;;;;;-2.67;100.00;95207.59;5015763;28;20195;-46
2022/03/04 03:17:26;;;;;;;29.20;15.47;;;;;;;-2.71;100.00;95205.88;5016035;28;20191;-55
2022/03/04 03:19:51;;;;;;;27.70;14.73;;;;;;;-2.79;100.00;95212.06;5016014;28;20210;-59
2022/03/04 03:22:18;;;;;;;32.90;18.33;;;;;;;-2.86;100.00;95203.78;5015621;28;20194;-59
2022/03/04 03:24:44;;;;;;;29.00;14.80;;;;;;;-2.89;100.00;95215.09;5015430;28;20250;-58
2022/03/04 03:27:10;;;;;;;29.60;14.50;;;;;;;-2.92;100.00;95205.84;5015459;28;20187;-58
2022/03/04 03:29:36;;;;;;;27.87;14.87;;;;;;;-2.95;100.00;95205.72;5015879;28;20175;-57
2022/03/04 03:32:02;;;;;;;25.80;14.77;;;;;;;-2.99;100.00;95210.13;5015781;28;20195;-58
2022/03/04 03:34:27;;;;;;;27.63;14.60;;;;;;;-3.03;100.00;95225.25;5015407;28;20238;-47
2022/03/04 03:36:53;;;;;;;29.03;14.93;;;;;;;-3.06;100.00;95225.88;5015900;28;20191;-58
2022/03/04 03:39:18;;;;;;;32.07;17.70;;;;;;;-3.08;100.00;95228.06;5015508;28;20194;-59
2022/03/04 03:41:44;;;;;;;30.63;15.53;;;;;;;-3.09;100.00;95231.84;5015266;28;20244;-58
2022/03/04 03:44:09;;;;;;;26.50;14.90;;;;;;;-3.10;100.00;95232.97;5015289;28;20210;-58
2022/03/04 03:46:35;;;;;;;30.33;17.23;;;;;;;-3.12;100.00;95229.81;5014150;28;20202;-58
2022/03/04 03:49:00;;;;;;;26.37;15.07;;;;;;;-3.16;100.00;95226.22;5015507;28;20187;-59
2022/03/04 03:51:25;;;;;;;25.67;14.70;;;;;;;-3.23;100.00;95224.06;5015349;28;20187;-59
2022/03/04 03:53:51;;;;;;;36.37;21.20;;;;;;;-3.29;100.00;95227.25;5014950;28;20222;-63
2022/03/04 03:56:18;;;;;;;28.57;15.00;;;;;;;-3.32;100.00;95227.88;5014793;28;20195;-63
2022/03/04 03:58:44;;;;;;;26.07;14.13;;;;;;;-3.35;100.00;95229.31;5015102;28;20187;-63
2022/03/04 04:01:09;;;;;;;24.50;14.27;;;;;;;-3.38;100.00;95229.13;5014832;28;20182;-63
2022/03/04 04:03:35;;;;;;;31.53;14.60;;;;;;;-3.39;100.00;95239.00;5015198;28;20662;-63
2022/03/04 04:06:00;;;;;;;26.73;14.63;;;;;;;-3.38;100.00;95237.16;5014418;28;20207;-63
2022/03/04 04:08:26;;;;;;;31.57;14.17;;;;;;;-3.40;100.00;95242.78;5015318;28;20297;-63
2022/03/04 04:10:51;;;;;;;28.00;14.03;;;;;;;-3.43;100.00;95242.66;5014786;28;20254;-67
2022/03/04 04:13:16;;;;;;;25.23;14.23;;;;;;;-3.43;100.00;95240.00;5015427;28;20187;-51
2022/03/04 04:15:42;;;;;;;26.87;14.53;;;;;;;-3.46;100.00;95242.19;5015102;28;20187;-52
2022/03/04 04:18:08;;;;;;;26.70;14.27;;;;;;;-3.60;100.00;95238.91;5014523;28;20187;-52
2022/03/04 04:20:33;;;;;;;25.60;14.10;;;;;;;-3.66;100.00;95242.88;5014617;28;20179;-50
2022/03/04 04:22:58;;;;;;;26.93;14.43;;;;;;;-3.68;100.00;95250.41;5014394;28;20183;-52
2022/03/04 04:25:24;;;;;;;26.30;13.57;;;;;;;-3.66;100.00;95250.88;5014513;28;20214;-53
2022/03/04 04:27:49;;;;;;;25.90;13.77;;;;;;;-3.67;100.00;95254.63;5014829;28;20187;-54
2022/03/04 04:30:14;;;;;;;28.03;14.33;;;;;;;-3.70;100.00;95251.81;5014356;28;20191;-65
2022/03/04 04:32:40;;;;;;;23.30;13.97;;;;;;;-3.70;100.00;95247.28;5014832;28;20225;-52
2022/03/04 04:35:06;;;;;;;29.50;14.67;;;;;;;-3.71;100.00;95258.25;5014970;28;20247;-53
2022/03/04 04:37:31;;;;;;;24.13;13.53;;;;;;;-3.72;100.00;95257.47;5014105;28;20201;-52
2022/03/04 04:39:57;;;;;;;25.67;14.00;;;;;;;-3.76;100.00;95256.53;5014309;28;20195;-56
2022/03/04 04:42:22;;;;;;;23.83;13.10;;;;;;;-3.77;100.00;95252.31;5014686;28;20257;-55
2022/03/04 04:44:48;;;;;;;23.47;13.07;;;;;;;-3.82;100.00;95260.47;5014212;28;20210;-56
2022/03/04 04:47:13;;;;;;;24.57;13.47;;;;;;;-3.83;100.00;95266.91;5014281;28;20183;-57
2022/03/04 04:49:39;;;;;;;23.57;12.67;;;;;;;-3.83;100.00;95266.91;5014301;28;20237;-53
2022/03/04 04:52:06;;;;;;;25.97;13.97;;;;;;;-3.81;100.00;95264.72;5014197;28;20183;-55
2022/03/04 04:54:32;;;;;;;26.20;14.00;;;;;;;-3.81;100.00;95267.38;5014166;28;20195;-55
2022/03/04 04:56:58;;;;;;;24.03;14.40;;;;;;;-3.82;100.00;95273.78;5014017;28;20187;-55
2022/03/04 04:59:24;;;;;;;27.47;15.40;;;;;;;-3.82;100.00;95281.78;5013881;28;20203;-56
2022/03/04 05:01:49;;;;;;;28.33;15.10;;;;;;;-3.80;100.00;95276.94;5014215;28;20207;-56
2022/03/04 05:04:14;;;;;;;30.90;15.50;;;;;;;-3.71;100.00;95280.38;5014513;28;20211;-54
2022/03/04 05:06:40;;;;;;;28.87;15.23;;;;;;;-3.70;100.00;95279.28;5014699;28;20191;-50
2022/03/04 05:09:05;;;;;;;25.00;13.83;;;;;;;-3.70;100.00;95276.63;5013878;28;20191;-65
2022/03/04 05:11:31;;;;;;;25.40;15.23;;;;;;;-3.70;100.00;95283.81;5014027;28;20191;-64
2022/03/04 05:13:56;;;;;;;26.03;14.40;;;;;;;-3.70;100.00;95271.28;5013924;28;20190;-64
2022/03/04 05:16:22;;;;;;;27.10;14.80;;;;;;;-3.70;100.00;95271.28;5014280;28;20188;-64
2022/03/04 05:18:47;;;;;;;26.80;15.10;;;;;;;-3.68;100.00;95274.41;5013822;28;20183;-64
2022/03/04 05:21:12;;;;;;;30.50;15.17;;;;;;;-3.69;100.00;95278.19;5013716;28;20183;-64
2022/03/04 05:26:22;;;;;;;29.70;15.20;;;;;;;-3.72;100.00;95284.13;5015411;28;20205;-51
2022/03/04 05:28:47;;;;;;;28.83;14.90;;;;;;;-3.74;100.00;95281.03;5013857;28;20191;-55
2022/03/04 05:31:13;;;;;;;28.07;14.00;;;;;;;-3.75;100.00;95281.34;5013362;28;20231;-56
2022/03/04 05:33:38;;;;;;;33.10;13.60;;;;;;;-3.75;100.00;95284.00;5013776;28;20183;-54
2022/03/04 05:36:04;;;;;;;30.53;14.60;;;;;;;-3.76;100.00;95288.53;5013531;28;20302;-52
2022/03/04 05:38:29;;;;;;;30.43;14.20;;;;;;;-3.82;100.00;95287.13;5013226;28;20191;-54
2022/03/04 05:40:55;;;;;;;29.83;14.30;;;;;;;-3.84;100.00;95291.22;5013386;28;20283;-51
2022/03/04 05:43:20;;;;;;;29.47;15.10;;;;;;;-3.87;100.00;95300.63;5013277;28;20195;-63
2022/03/04 05:45:46;;;;;;;30.80;14.63;;;;;;;-3.87;100.00;95297.97;5013284;28;20223;-58
2022/03/04 05:48:11;;;;;;;28.23;14.77;;;;;;;-3.89;100.00;95310.81;5013269;28;20191;-58
2022/03/04 05:50:37;;;;;;;30.10;14.80;;;;;;;-3.88;100.00;95314.25;5013458;28;20237;-57
2022/03/04 05:53:02;;;;;;;30.43;13.53;;;;;;;-3.87;100.00;95319.28;5013249;28;20191;-58
2022/03/04 05:55:28;;;;;;;25.47;14.50;;;;;;;-3.84;100.00;95326.66;5013293;28;20282;-58
2022/03/04 05:57:53;;;;;;;26.07;15.07;;;;;;;-3.76;100.00;95331.22;5013180;28;20183;-59
2022/03/04 06:00:18;;;;;;;26.97;15.23;;;;;;;-3.60;100.00;95332.28;5013132;28;20195;-60
2022/03/04 06:02:43;;;;;;;29.67;14.97;;;;;;;-3.47;100.00;95327.09;5013375;28;20254;-60
2022/03/04 06:05:09;;;;;;;27.40;15.10;;;;;;;-3.47;100.00;95334.00;5013258;28;20203;-54
2022/03/04 06:07:35;;;;;;;25.90;15.07;;;;;;;-3.47;100.00;95327.88;5013645;28;20280;-56
2022/03/04 06:10:01;;;;;;;29.17;14.23;;;;;;;-3.39;100.00;95334.31;5013383;28;20194;-52
2022/03/04 06:12:26;;;;;;;28.77;15.87;;;;;;;-3.03;100.00;95332.81;5013069;28;20278;-55
2022/03/04 06:14:52;;;;;;;27.50;15.17;;;;;;;-2.39;100.00;95330.81;5013245;28;20214;-55
2022/03/04 06:17:17;;;;;;;32.60;15.53;;;;;;;-1.65;100.00;95334.38;5013034;28;20197;-54
2022/03/04 06:19:44;;;;;;;31.17;15.33;;;;;;;-0.82;100.00;95341.16;5013389;28;20310;-62
2022/03/04 06:22:09;;;;;;;29.57;15.47;;;;;;;-0.12;100.00;95343.44;5012838;28;20190;-53
2022/03/04 06:24:35;;;;;;;33.93;16.17;;;;;;;0.29;100.00;95337.00;5013217;28;20203;-52
2022/03/04 06:27:00;;;;;;;30.17;16.40;;;;;;;1.16;100.00;95344.06;5012957;28;20199;-55
2022/03/04 06:29:25;;;;;;;30.80;16.60;;;;;;;1.44;100.00;95340.19;5013230;28;20235;-53
2022/03/04 06:31:51;;;;;;;28.30;15.73;;;;;;;1.69;100.00;95344.28;5012728;28;20191;-54
2022/03/04 06:34:17;;;;;;;27.03;16.57;;;;;;;2.18;97.62;95340.03;5013472;28;20195;-53
2022/03/04 06:36:42;;;;;;;26.07;16.40;;;;;;;2.47;92.09;95344.91;5012389;28;20193;-55
2022/03/04 06:39:08;;;;;;;28.17;16.33;;;;;;;3.01;88.27;95348.34;5012812;28;20197;-61
2022/03/04 06:41:33;;;;;;;29.70;17.97;;;;;;;3.24;85.23;95356.47;5012693;28;20283;-49
2022/03/04 06:43:58;;;;;;;30.07;17.90;;;;;;;3.34;82.93;95355.88;5012550;28;20203;-50
2022/03/04 06:46:24;;;;;;;32.33;17.77;;;;;;;3.84;80.53;95358.31;5012203;28;20194;-54
2022/03/04 06:48:49;;;;;;;27.70;17.90;;;;;;;4.54;78.05;95361.31;5012632;28;20189;-54
2022/03/04 06:51:14;;;;;;;28.20;17.60;;;;;;;4.41;74.86;95365.38;5012885;28;20189;-56
2022/03/04 06:53:39;;;;;;;28.27;16.83;;;;;;;5.11;72.31;95361.69;5012476;28;20191;-55
2022/03/04 06:56:05;;;;;;;27.90;18.03;;;;;;;5.53;67.85;95370.28;5012029;28;20189;-55
2022/03/04 06:58:30;;;;;;;26.53;17.73;;;;;;;5.68;66.58;95363.09;5012703;28;20190;-52
2022/03/04 07:00:56;;;;;;;31.43;19.13;;;;;;;5.71;65.54;95362.31;5012505;28;20185;-57
2022/03/04 07:03:23;;;;;;;29.73;18.90;;;;;;;6.26;64.23;95366.69;5012685;28;20284;-58
2022/03/04 07:05:48;;;;;;;26.67;18.50;;;;;;;5.65;62.08;95380.84;5012117;28;20211;-58
2022/03/04 07:08:14;;;;;;;26.90;18.53;;;;;;;6.74;60.54;95370.94;5012299;28;20202;-58
2022/03/04 07:10:42;;;;;;;28.93;18.60;;;;;;;6.89;58.40;95361.69;5012167;28;20193;-57
2022/03/04 07:13:08;;;;;;;30.03;18.70;;;;;;;6.84;55.86;95364.75;5012316;28;20238;-58
2022/03/04 07:15:35;;;;;;;27.60;19.17;;;;;;;6.97;55.78;95366.00;5012099;28;20194;-52
2022/03/04 07:18:00;;;;;;;26.60;18.03;;;;;;;6.10;58.50;95369.69;5012358;28;20189;-55
2022/03/04 07:20:26;;;;;;;27.50;18.43;;;;;;;6.19;60.02;95372.06;5013359;28;20190;-54
2022/03/04 07:22:51;;;;;;;27.87;18.40;;;;;;;6.81;55.36;95376.38;5015057;28;20191;-53
2022/03/04 07:25:17;;;;;;;26.43;18.70;;;;;;;6.57;56.55;95377.00;5014930;28;20273;-53
2022/03/04 07:27:42;;;;;;;25.47;17.73;;;;;;;5.77;56.81;95377.88;5015510;28;20179;-56
2022/03/04 07:30:11;;;;;;;28.93;19.37;;;;;;;6.86;53.68;95378.75;5015657;28;20183;-54
2022/03/04 07:32:37;;;;;;;25.60;18.73;;;;;;;6.44;55.82;95379.25;5015452;28;20289;-58
2022/03/04 07:35:03;;;;;;;27.07;18.97;;;;;;;7.41;51.79;95382.88;5015200;28;20218;-56
2022/03/04 07:37:28;;;;;;;26.60;18.33;;;;;;;7.63;50.96;95384.50;5015076;28;20217;-54
2022/03/04 07:39:54;;;;;;;25.67;18.17;;;;;;;8.34;48.83;95383.44;5015139;28;20203;-54
2022/03/04 07:42:19;;;;;;;25.23;18.40;;;;;;;9.22;46.50;95386.03;5015438;28;20236;-53
2022/03/04 07:44:44;;;;;;;25.93;17.60;;;;;;;10.28;42.75;95383.56;5015287;28;20207;-54
2022/03/04 07:47:10;;;;;;;23.30;17.80;;;;;;;10.34;41.01;95379.22;5015209;28;20184;-54
2022/03/04 07:49:36;;;;;;;25.67;18.57;;;;;;;10.42;39.96;95383.44;5014678;28;20191;-53
2022/03/04 07:52:01;;;;;;;26.60;18.83;;;;;;;9.97;39.60;95393.47;5015113;28;20272;-53
2022/03/04 07:54:26;;;;;;;26.90;18.43;;;;;;;9.91;39.76;95384.94;5014868;28;20191;-48
2022/03/04 07:56:52;;;;;;;22.73;18.23;;;;;;;10.10;40.84;95389.91;5014907;28;20183;-51
2022/03/04 07:59:19;;;;;;;23.63;17.73;;;;;;;10.22;39.25;95394.13;5015113;28;20187;-49
2022/03/04 08:01:44;;;;;;;24.63;18.37;;;;;;;10.14;39.35;95398.06;5015145;28;20191;-45
2022/03/04 08:04:11;;;;;;;22.50;17.03;;;;;;;10.59;38.71;95396.19;5014999;28;20206;-48
2022/03/04 08:06:38;;;;;;;22.43;17.17;;;;;;;9.79;38.29;95403.69;5014836;28;20191;-47
2022/03/04 08:09:03;;;;;;;24.20;17.63;;;;;;;8.10;41.38;95402.44;5015294;28;20179;-53
2022/03/04 08:11:29;;;;;;;22.43;16.97;;;;;;;9.76;39.25;95402.53;5015926;28;20253;-53
2022/03/04 08:13:54;;;;;;;23.47;17.53;;;;;;;9.74;38.68;95399.47;5014783;28;20191;-59
2022/03/04 08:16:19;;;;;;;21.80;16.43;;;;;;;9.84;38.86;95406.78;5015726;28;20215;-58
2022/03/04 08:18:45;;;;;;;24.77;17.27;;;;;;;11.25;39.16;95395.53;5014945;28;20175;-58
2022/03/04 08:21:11;;;;;;;23.40;16.77;;;;;;;12.12;36.84;95409.31;5014738;28;20226;-59
2022/03/04 08:23:37;;;;;;;23.67;17.30;;;;;;;10.80;36.00;95402.25;5015109;28;20175;-58
2022/03/04 08:26:03;;;;;;;23.33;16.87;;;;;;;9.75;37.52;95413.84;5014744;28;20211;-60
2022/03/04 08:28:32;;;;;;;23.70;17.13;;;;;;;9.16;38.37;95423.81;5014896;28;20179;-54
2022/03/04 08:30:57;;;;;;;22.60;17.33;;;;;;;10.55;36.84;95417.25;5015536;28;20183;-49
2022/03/04 08:33:24;;;;;;;22.97;16.60;;;;;;;10.75;35.90;95416.34;5013956;28;20202;-50
2022/03/04 08:35:50;;;;;;;23.10;17.13;;;;;;;11.30;36.09;95419.72;5014438;28;20270;-48
2022/03/04 08:38:15;;;;;;;21.77;16.10;;;;;;;10.86;35.07;95422.50;5014856;28;20207;-45
2022/03/04 08:40:40;;;;;;;23.20;17.07;;;;;;;10.09;36.12;95418.38;5014001;28;20198;-47
2022/03/04 08:43:06;;;;;;;22.50;17.03;;;;;;;10.04;36.10;95416.03;5013926;28;20210;-49
2022/03/04 08:45:31;;;;;;;24.37;17.50;;;;;;;11.06;35.99;95406.28;5014353;28;20214;-51
2022/03/04 08:47:57;;;;;;;24.17;17.63;;;;;;;9.75;37.51;95420.09;5013946;28;20210;-53
2022/03/04 08:50:22;;;;;;;22.60;16.20;;;;;;;10.49;36.15;95413.44;5014370;28;20195;-50
2022/03/04 08:52:48;;;;;;;23.37;18.07;;;;;;;10.56;36.02;95418.84;5014223;28;20183;-50
2022/03/04 08:55:16;;;;;;;21.77;16.70;;;;;;;10.08;35.75;95422.28;5014445;28;20183;-53
2022/03/04 08:57:46;;;;;;;24.33;17.80;;;;;;;9.39;36.80;95426.06;5014089;28;20197;-53
2022/03/04 09:00:13;;;;;;;25.13;16.63;;;;;;;9.94;36.48;95430.50;5014137;28;20187;-52
2022/03/04 09:02:38;;;;;;;24.03;18.20;;;;;;;9.77;37.31;95428.63;5014086;28;20199;-52
2022/03/04 09:05:05;;;;;;;24.60;16.83;;;;;;;10.30;36.58;95427.63;5014411;28;20233;-68
2022/03/04 09:07:30;;;;;;;23.90;16.50;;;;;;;9.03;36.99;95428.09;5014253;28;20237;-57
2022/03/04 09:09:56;;;;;;;22.03;16.50;;;;;;;8.86;38.30;95436.31;5014342;28;20199;-58
2022/03/04 09:12:21;;;;;;;27.30;17.50;;;;;;;8.77;39.10;95420.38;5015174;28;20230;-56
2022/03/04 09:14:46;;;;;;;23.77;16.40;;;;;;;8.90;38.79;95437.88;5013975;28;20191;-58
2022/03/04 09:17:12;;;;;;;22.93;16.60;;;;;;;9.75;37.80;95430.22;5014333;28;20183;-59
2022/03/04 09:19:37;;;;;;;23.70;16.53;;;;;;;9.86;37.04;95426.28;5014162;28;20207;-59
2022/03/04 09:22:03;;;;;;;22.83;16.63;;;;;;;9.74;36.67;95424.00;5014079;28;20236;-59
2022/03/04 09:24:28;;;;;;;22.63;16.43;;;;;;;8.97;38.31;95429.69;5014099;28;20217;-58
2022/03/04 09:26:54;;;;;;;22.83;16.97;;;;;;;9.36;37.67;95419.47;5013675;28;20187;-48
2022/03/04 09:29:20;;;;;;;25.43;16.77;;;;;;;9.86;37.30;95426.28;5013771;28;20198;-46
2022/03/04 09:31:45;;;;;;;22.77;16.90;;;;;;;9.67;36.91;95421.31;5013652;28;20191;-48
2022/03/04 09:34:11;;;;;;;24.27;17.13;;;;;;;9.42;37.09;95423.34;5013126;28;20180;-47
2022/03/04 09:36:37;;;;;;;23.17;16.93;;;;;;;8.67;39.27;95415.69;5013360;28;20199;-50
2022/03/04 09:39:03;;;;;;;24.57;16.67;;;;;;;9.12;39.19;95412.16;5013897;28;20187;-46
2022/03/04 09:41:30;;;;;;;24.60;16.87;;;;;;;9.43;38.64;95413.97;5013566;28;20195;-55
2022/03/04 09:43:56;;;;;;;24.07;16.83;;;;;;;9.30;39.00;95412.88;5013478;28;20191;-53
2022/03/04 09:46:23;;;;;;;25.37;17.63;;;;;;;9.25;38.54;95413.25;5012578;28;20278;-54
2022/03/04 09:48:50;;;;;;;23.50;16.50;;;;;;;9.72;38.32;95418.16;5013352;28;20183;-55
2022/03/04 09:51:16;;;;;;;25.20;17.27;;;;;;;10.06;37.15;95413.69;5013219;28;20183;-55
2022/03/04 09:53:41;;;;;;;22.23;16.43;;;;;;;9.59;36.96;95416.28;5013587;28;20229;-54
2022/03/04 09:56:06;;;;;;;21.60;16.53;;;;;;;9.61;37.50;95403.78;5013477;28;20182;-55
2022/03/04 09:58:32;;;;;;;24.43;17.60;;;;;;;10.29;37.00;95398.75;5013220;28;20183;-53
2022/03/04 10:00:57;;;;;;;25.83;17.23;;;;;;;9.93;37.12;95403.63;5013347;28;20187;-53
2022/03/04 10:03:29;;;;;;;25.33;17.40;;;;;;;9.61;38.16;95398.34;5013529;28;20214;-57
2022/03/04 10:05:58;;;;;;;23.47;16.70;;;;;;;9.43;37.73;95410.47;5013044;28;20207;-54
2022/03/04 10:08:24;;;;;;;29.03;17.37;;;;;;;8.34;37.90;95391.59;5013153;28;20216;-54
2022/03/04 10:10:51;;;;;;;23.13;16.40;;;;;;;7.67;39.72;95400.78;5012900;28;20198;-53
2022/03/04 10:13:17;;;;;;;23.33;16.50;;;;;;;7.90;39.33;95417.56;5013228;28;20224;-52
2022/03/04 10:15:54;;;;;;;25.33;16.23;;;;;;;8.18;39.23;95404.78;5013378;28;20291;-53
2022/03/04 10:18:26;;;;;;;26.50;17.63;;;;;;;8.85;38.11;95405.56;5012957;28;20213;-49
2022/03/04 10:20:52;;;;;;;25.57;16.43;;;;;;;8.54;38.15;95390.06;5012921;28;20258;-54
2022/03/04 10:23:26;;;;;;;21.57;15.87;;;;;;;8.61;38.68;95390.06;5013160;28;20190;-65
2022/03/04 10:25:58;;;;;;;24.67;16.70;;;;;;;9.41;37.00;95394.53;5013775;28;20296;-64
2022/03/04 10:28:27;;;;;;;26.33;16.73;;;;;;;8.71;38.75;95383.06;5013302;28;20288;-65
2022/03/04 10:30:54;;;;;;;24.57;16.80;;;;;;;9.49;37.32;95390.63;5012757;28;20214;-65
2022/03/04 10:33:22;;;;;;;26.30;17.10;;;;;;;10.42;36.23;95386.97;5012545;28;20284;-65
2022/03/04 10:36:06;;;;;;;23.03;15.93;;;;;;;9.98;36.21;95406.72;5012883;28;20198;-65
2022/03/04 10:38:32;;;;;;;24.47;15.73;;;;;;;10.46;35.99;95397.84;5012705;28;20217;-65
2022/03/04 10:40:57;;;;;;;26.53;16.00;;;;;;;10.42;35.42;95383.44;5012560;28;20183;-48
2022/03/04 10:43:32;;;;;;;21.47;15.13;;;;;;;9.87;35.54;95381.44;5012574;28;20197;-46
2022/03/04 10:46:04;;;;;;;24.27;15.47;;;;;;;9.53;36.51;95391.38;5012748;28;20351;-49
2022/03/04 10:48:30;;;;;;;25.40;16.63;;;;;;;9.26;36.98;95393.00;5012477;28;20179;-48
2022/03/04 10:50:58;;;;;;;24.77;15.77;;;;;;;9.61;36.93;95392.88;5013217;28;20194;-51
2022/03/04 10:53:28;;;;;;;22.90;16.20;;;;;;;10.56;35.17;95375.16;5012640;28;20194;-48
2022/03/04 10:55:58;;;;;;;24.00;16.00;;;;;;;9.82;36.50;95384.59;5013143;28;20201;-54
2022/03/04 10:58:28;;;;;;;25.20;16.07;;;;;;;10.92;35.68;95381.84;5016317;28;20195;-53
2022/03/04 11:01:10;;;;;;;24.60;16.60;;;;;;;11.60;34.02;95377.94;5016632;28;20202;-52
2022/03/04 11:03:37;;;;;;;24.97;15.60;;;;;;;11.34;33.78;95370.44;5015970;28;20203;-52
2022/03/04 11:06:05;;;;;;;23.03;15.67;;;;;;;10.50;35.24;95376.75;5016871;28;20225;-54
2022/03/04 11:08:30;;;;;;;23.13;16.67;;;;;;;9.76;36.74;95388.91;5016168;28;20203;-54
2022/03/04 11:10:57;;;;;;;21.47;16.13;;;;;;;9.87;36.28;95377.94;5015764;28;20191;-56
2022/03/04 11:13:24;;;;;;;23.70;16.97;;;;;;;9.60;36.51;95374.97;5015922;28;20199;-58